Mattishall, United Kingdom
Current Conditions -  °F | °C
As of 6:20 AM on Tuesday 21 Oct 2014 (Local Time) from EGSH Reporting Station
Heavy Rain Heavy Rain  
Wind Chill: 54°   Ceiling: Unl
Heat Index: 54°   Visibility: 6mi
Dew Point: 54°   Wind: 14mph
Humidity: 100%   Direction: 200°SSW
Pressure: 29.5"   Gusts: NA
Location:  52.66°N, 1.03°E
Report Text: EGSH 210520Z 20012KT 150V250 9999 +RA SCT030 12/12 Q0999 BECMG NSW
Loading
Personal Weather Stations






























Interactive Weather Map
Tropical Storm Tracking
New forecast layout! Learn more

10-Day Weather Forecast

Advertisements
Track Severe Weather on mobile